createdAt,value
2023-04-27T00:00:29.786Z,60.12
2023-04-27T00:05:44.167Z,61.07
2023-04-27T00:10:46.072Z,60.58
2023-04-27T00:15:48.095Z,59.97
2023-04-27T00:20:50.232Z,60.96
2023-04-27T00:25:52.170Z,58.25
2023-04-27T00:30:55.557Z,58.26
2023-04-27T00:36:03.986Z,57.76
2023-04-27T00:41:08.856Z,59.49
2023-04-27T00:46:13.168Z,61.38
2023-04-27T00:51:15.421Z,62.25
2023-04-27T00:56:18.004Z,62.88
2023-04-27T01:01:21.142Z,63.12
2023-04-27T01:06:23.059Z,64.51
2023-04-27T01:11:25.155Z,63.82
2023-04-27T01:16:27.337Z,65.26
2023-04-27T01:21:29.130Z,65.43
2023-04-27T01:26:31.132Z,66.13
2023-04-27T01:31:34.200Z,66.75
2023-04-27T01:36:36.378Z,66.77
2023-04-27T01:41:38.267Z,67.16
2023-04-27T01:46:40.330Z,68.28
2023-04-27T01:51:42.170Z,68.09
2023-04-27T01:56:43.968Z,66.84
2023-04-27T02:01:47.236Z,67.03
2023-04-27T02:06:49.047Z,66.22
2023-04-27T02:11:50.983Z,66.65
2023-04-27T02:16:53.085Z,67.55
2023-04-27T02:21:55.090Z,67.57
2023-04-27T02:26:57.080Z,68.63
2023-04-27T02:31:59.063Z,68.47
2023-04-27T02:37:02.175Z,68.71
2023-04-27T02:42:05.233Z,69.60
2023-04-27T02:47:07.326Z,69.04
2023-04-27T02:52:09.553Z,68.43
2023-04-27T02:57:11.639Z,69.31
2023-04-27T03:02:13.549Z,69.24
2023-04-27T03:07:15.526Z,69.18
2023-04-27T03:12:17.290Z,69.31
2023-04-27T03:17:19.032Z,69.30
2023-04-27T03:22:23.597Z,69.62
2023-04-27T03:27:25.411Z,68.90
2023-04-27T03:32:27.211Z,68.32
2023-04-27T03:37:29.895Z,68.62
2023-04-27T03:42:32.295Z,67.87
2023-04-27T03:47:34.146Z,67.36
2023-04-27T03:52:35.939Z,66.59
2023-04-27T03:57:39.348Z,66.94
2023-04-27T04:02:42.293Z,67.60
2023-04-27T04:07:45.227Z,66.33
2023-04-27T04:12:48.115Z,65.97
2023-04-27T04:17:52.863Z,63.64
2023-04-27T04:22:54.632Z,57.74
2023-04-27T04:27:56.803Z,56.79
2023-04-27T04:32:58.679Z,56.02
2023-04-27T04:38:00.777Z,55.79
2023-04-27T04:43:04.279Z,56.31
2023-04-27T04:48:06.264Z,56.67
2023-04-27T04:53:08.344Z,56.34
2023-04-27T04:58:10.333Z,56.73
2023-04-27T05:03:12.326Z,56.45
2023-04-27T05:08:14.190Z,56.49
2023-04-27T05:13:16.097Z,56.79
2023-04-27T05:18:18.663Z,56.58
2023-04-27T05:23:20.500Z,55.50
2023-04-27T05:28:22.376Z,55.42
2023-04-27T05:33:24.088Z,56.23
2023-04-27T05:38:26.250Z,57.10
2023-04-27T05:43:28.021Z,56.88
2023-04-27T05:48:30.016Z,55.00
2023-04-27T05:53:33.246Z,53.16
2023-04-27T05:58:35.033Z,49.77
2023-04-27T06:03:37.136Z,47.91
2023-04-27T06:08:39.600Z,44.19
2023-04-27T06:13:41.548Z,44.51
2023-04-27T06:18:43.299Z,42.25
2023-04-27T06:23:45.113Z,42.63
2023-04-27T06:28:46.890Z,43.52
2023-04-27T06:33:48.635Z,41.71
2023-04-27T06:38:50.612Z,40.76
2023-04-27T06:43:53.413Z,38.59
2023-04-27T06:48:55.118Z,36.06
2023-04-27T06:53:57.355Z,35.03
2023-04-27T06:58:59.607Z,37.38
2023-04-27T07:04:01.561Z,33.22
2023-04-27T07:09:13.265Z,32.87
2023-04-27T07:14:22.786Z,26.68
2023-04-27T07:19:24.600Z,27.71
2023-04-27T07:24:26.361Z,33.01
2023-04-27T07:29:28.542Z,30.95
2023-04-27T07:34:41.121Z,31.43
2023-04-27T07:39:47.400Z,32.19
2023-04-27T07:44:50.363Z,29.50
2023-04-27T07:49:53.067Z,30.63
2023-04-27T07:54:54.846Z,32.44
2023-04-27T07:59:57.432Z,30.94
2023-04-27T08:04:59.439Z,29.83
2023-04-27T08:10:01.582Z,28.58
2023-04-27T08:15:05.670Z,27.93
2023-04-27T08:20:11.513Z,25.81
2023-04-27T08:25:13.241Z,25.95
2023-04-27T08:30:15.196Z,24.35
2023-04-27T08:35:16.915Z,24.56
2023-04-27T08:40:20.033Z,25.50
2023-04-27T08:45:24.285Z,22.66
2023-04-27T08:50:26.113Z,22.86
2023-04-27T08:55:30.187Z,24.45
2023-04-27T09:00:42.466Z,24.27
2023-04-27T09:06:00.682Z,23.72
2023-04-27T09:11:07.867Z,23.21
2023-04-27T09:16:14.358Z,26.82
2023-04-27T09:21:26.399Z,23.35
2023-04-27T09:26:28.142Z,24.26
2023-04-27T09:31:34.245Z,24.77
2023-04-27T09:36:36.606Z,25.52
2023-04-27T09:41:38.572Z,23.29
2023-04-27T09:46:44.144Z,25.26
2023-04-27T09:51:45.921Z,24.29
2023-04-27T09:57:03.518Z,24.47
2023-04-27T10:07:27.956Z,19.90
2023-04-27T10:12:36.762Z,23.63
2023-04-27T10:17:38.882Z,22.13
2023-04-27T10:22:43.163Z,22.36
2023-04-27T10:27:53.333Z,24.34
2023-04-27T10:32:59.907Z,23.11
2023-04-27T10:38:19.624Z,27.57
2023-04-27T10:43:25.824Z,24.89
2023-04-27T10:48:30.441Z,24.33
2023-04-27T10:53:36.628Z,21.34
2023-04-27T11:03:46.961Z,22.83
2023-04-27T11:08:48.852Z,23.63
2023-04-27T11:13:55.696Z,22.07
2023-04-27T11:19:04.746Z,23.83
2023-04-27T11:24:07.661Z,24.59
2023-04-27T11:29:12.543Z,23.40
2023-04-27T11:34:22.732Z,22.47
2023-04-27T11:39:32.948Z,20.77
2023-04-27T11:44:34.677Z,22.00
2023-04-27T11:49:37.700Z,23.57
2023-04-27T11:54:39.575Z,21.78
2023-04-27T11:59:41.772Z,22.09
2023-04-27T12:04:43.756Z,22.32
2023-04-27T12:09:46.085Z,20.77
2023-04-27T12:14:48.570Z,22.02
2023-04-27T12:19:50.344Z,23.45
2023-04-27T12:24:52.071Z,22.19
2023-04-27T12:29:54.445Z,21.90
2023-04-27T12:34:56.280Z,25.47
2023-04-27T12:39:58.306Z,23.66
2023-04-27T12:45:00.090Z,23.78
2023-04-27T12:50:01.925Z,23.93
2023-04-27T12:55:04.977Z,24.18
2023-04-27T13:00:10.253Z,25.25
2023-04-27T13:05:12.242Z,26.64
2023-04-27T13:10:13.988Z,26.74
2023-04-27T13:15:15.732Z,28.03
2023-04-27T13:20:17.618Z,27.88
2023-04-27T13:25:20.116Z,28.28
2023-04-27T13:30:21.919Z,28.06
2023-04-27T13:35:24.829Z,26.59
2023-04-27T13:40:26.902Z,27.31
2023-04-27T13:45:28.686Z,28.04
2023-04-27T13:50:30.569Z,27.72
2023-04-27T13:55:32.399Z,26.60
2023-04-27T14:00:34.837Z,25.79
2023-04-27T14:05:36.721Z,26.14
2023-04-27T14:10:38.749Z,23.88
2023-04-27T14:15:41.384Z,24.00
2023-04-27T14:20:44.629Z,26.14
2023-04-27T14:25:46.448Z,24.58
2023-04-27T14:30:48.284Z,25.37
2023-04-27T14:35:50.384Z,24.09
2023-04-27T14:40:52.359Z,23.80
2023-04-27T14:46:01.857Z,23.05
2023-04-27T14:51:11.120Z,23.00
2023-04-27T14:56:12.885Z,22.99
2023-04-27T15:01:14.647Z,25.14
2023-04-27T15:06:16.546Z,25.29
2023-04-27T15:11:18.335Z,25.83
2023-04-27T15:16:20.463Z,24.89
2023-04-27T15:21:22.390Z,23.98
2023-04-27T15:26:26.406Z,25.48
2023-04-27T15:31:28.257Z,26.19
2023-04-27T15:36:30.051Z,27.51
2023-04-27T15:41:32.269Z,28.25
2023-04-27T15:46:34.972Z,26.23
2023-04-27T15:51:36.748Z,26.26
2023-04-27T15:56:39.650Z,26.12
2023-04-27T16:01:41.606Z,26.46
2023-04-27T16:06:43.378Z,27.39
2023-04-27T16:11:45.143Z,28.54
2023-04-27T16:16:46.957Z,27.37
2023-04-27T16:21:48.799Z,29.14
2023-04-27T16:26:50.574Z,28.39
2023-04-27T16:31:53.267Z,30.12
2023-04-27T16:36:55.416Z,27.41
2023-04-27T16:41:57.233Z,29.09
2023-04-27T16:46:58.916Z,29.82
2023-04-27T16:52:00.742Z,28.34
2023-04-27T16:57:02.586Z,29.47
2023-04-27T17:02:17.010Z,29.35
2023-04-27T17:07:28.500Z,28.46
2023-04-27T17:12:30.272Z,31.77
2023-04-27T17:17:33.700Z,33.05
2023-04-27T17:22:35.719Z,33.02
2023-04-27T17:27:39.965Z,32.82
2023-04-27T17:32:41.981Z,34.02
2023-04-27T17:37:48.229Z,36.12
2023-04-27T17:42:50.257Z,37.28
2023-04-27T17:47:55.161Z,38.74
2023-04-27T17:52:57.327Z,39.85
2023-04-27T17:57:59.195Z,41.28
2023-04-27T18:03:01.188Z,42.40
2023-04-27T18:08:06.007Z,42.90
2023-04-27T18:13:09.358Z,42.76
2023-04-27T18:18:19.060Z,43.37
2023-04-27T18:23:23.114Z,45.06
2023-04-27T18:28:26.069Z,45.59
2023-04-27T18:33:27.766Z,45.72
2023-04-27T18:38:29.741Z,45.82
2023-04-27T18:43:38.766Z,46.01
2023-04-27T18:48:43.009Z,46.30
2023-04-27T18:53:49.021Z,47.20
2023-04-27T18:58:51.136Z,47.90
2023-04-27T19:03:53.955Z,47.81
2023-04-27T19:08:56.573Z,48.23
2023-04-27T19:14:00.832Z,47.22
2023-04-27T19:19:02.504Z,47.45
2023-04-27T19:24:05.742Z,47.38
2023-04-27T19:29:07.621Z,47.48
2023-04-27T19:34:09.371Z,47.66
2023-04-27T19:39:13.423Z,47.81
2023-04-27T19:49:53.190Z,47.59
2023-04-27T20:00:25.641Z,47.78
2023-04-27T20:05:27.808Z,47.34
2023-04-27T20:10:29.753Z,48.08
2023-04-27T20:15:32.338Z,51.37
2023-04-27T20:20:34.191Z,50.66
2023-04-27T20:25:36.083Z,50.24
2023-04-27T20:30:37.796Z,50.53
2023-04-27T20:35:39.984Z,50.97
2023-04-27T20:40:42.075Z,50.06
2023-04-27T20:45:43.902Z,49.75
2023-04-27T20:50:45.837Z,51.34
2023-04-27T20:55:47.573Z,52.04
2023-04-27T21:00:49.415Z,53.03
2023-04-27T21:05:51.418Z,54.01
2023-04-27T21:10:53.223Z,53.84
2023-04-27T21:15:54.959Z,53.91
2023-04-27T21:20:56.911Z,54.90
2023-04-27T21:25:58.654Z,55.32
2023-04-27T21:31:07.750Z,54.74
2023-04-27T21:36:12.007Z,54.59
2023-04-27T21:41:17.485Z,56.15
2023-04-27T21:46:21.581Z,56.45
2023-04-27T21:51:23.549Z,56.86
2023-04-27T21:56:27.370Z,58.15
2023-04-27T22:01:29.237Z,58.36
2023-04-27T22:06:31.079Z,57.30
2023-04-27T22:11:32.913Z,57.67
2023-04-27T22:16:34.915Z,57.05
2023-04-27T22:21:37.638Z,57.63
2023-04-27T22:26:42.733Z,58.39
2023-04-27T22:31:45.582Z,57.26
2023-04-27T22:36:47.447Z,58.68
2023-04-27T22:41:50.660Z,59.63
2023-04-27T22:46:52.808Z,60.60
2023-04-27T22:51:57.748Z,61.18
2023-04-27T22:56:59.518Z,60.51
2023-04-27T23:02:01.239Z,60.67
2023-04-27T23:07:03.870Z,61.21
2023-04-27T23:12:07.816Z,60.75
2023-04-27T23:17:10.322Z,60.42
2023-04-27T23:22:15.238Z,60.30
2023-04-27T23:27:17.041Z,59.97
2023-04-27T23:32:18.832Z,60.15
2023-04-27T23:37:21.490Z,60.35
2023-04-27T23:42:23.214Z,61.84
2023-04-27T23:47:24.998Z,61.02
2023-04-27T23:52:26.865Z,62.82
2023-04-27T23:57:28.580Z,62.75
